createdAt,value
2018-12-15T00:00:04.245Z,0
2018-12-15T00:00:16.760Z,9.656064
2018-12-15T00:00:29.123Z,8.04672
2018-12-15T00:00:41.462Z,8.04672
2018-12-15T00:00:53.808Z,6.437376
2018-12-15T00:01:06.166Z,3.218688
2018-12-15T00:01:18.525Z,3.218688
2018-12-15T00:01:32.078Z,6.437376
2018-12-15T00:01:44.424Z,8.04672
2018-12-15T00:01:56.774Z,4.828032
2018-12-15T00:02:09.118Z,1.609344
2018-12-15T00:02:21.475Z,3.218688
2018-12-15T00:02:34.066Z,1.609344
2018-12-15T00:02:46.429Z,1.609344
2018-12-15T00:02:58.759Z,1.609344
2018-12-15T00:03:11.093Z,0
2018-12-15T00:03:23.444Z,3.218688
2018-12-15T00:03:35.792Z,3.218688
2018-12-15T00:03:48.137Z,1.609344
2018-12-15T00:04:00.498Z,1.609344
2018-12-15T00:04:12.841Z,3.218688
2018-12-15T00:04:25.187Z,4.828032
2018-12-15T00:04:37.591Z,6.437376
2018-12-15T00:04:49.933Z,4.828032
2018-12-15T00:05:02.274Z,3.218688
2018-12-15T00:05:14.688Z,6.437376
2018-12-15T00:05:27.037Z,8.04672
2018-12-15T00:05:39.382Z,8.04672
2018-12-15T00:05:51.887Z,4.828032
2018-12-15T00:06:04.311Z,9.656064
2018-12-15T00:06:16.667Z,8.04672
2018-12-15T00:06:29.049Z,8.04672
2018-12-15T00:06:41.401Z,6.437376
2018-12-15T00:06:53.736Z,8.04672
2018-12-15T00:07:06.080Z,8.04672
2018-12-15T00:07:18.416Z,8.04672
2018-12-15T00:07:30.828Z,3.218688
2018-12-15T00:07:43.184Z,8.04672
2018-12-15T00:07:55.512Z,8.04672
2018-12-15T00:08:07.866Z,6.437376
2018-12-15T00:08:20.209Z,12.874752
2018-12-15T00:08:32.556Z,11.265408
2018-12-15T00:08:44.904Z,8.04672
2018-12-15T00:08:57.334Z,8.04672
2018-12-15T00:09:09.660Z,8.04672
2018-12-15T00:09:22.000Z,4.828032
2018-12-15T00:09:34.730Z,4.828032
2018-12-15T00:09:47.096Z,9.656064
2018-12-15T00:09:59.458Z,3.218688
2018-12-15T00:10:11.805Z,3.218688
2018-12-15T00:10:24.156Z,8.04672
2018-12-15T00:10:36.501Z,8.04672
2018-12-15T00:10:48.830Z,9.656064
2018-12-15T00:11:01.191Z,9.656064
2018-12-15T00:11:13.647Z,9.656064
2018-12-15T00:11:26.031Z,6.437376
2018-12-15T00:11:38.367Z,8.04672
2018-12-15T00:11:50.743Z,8.04672
2018-12-15T00:12:03.106Z,8.04672
2018-12-15T00:12:15.444Z,6.437376
2018-12-15T00:12:27.807Z,8.04672
2018-12-15T00:12:40.240Z,11.265408
2018-12-15T00:12:52.612Z,11.265408
2018-12-15T00:13:04.959Z,9.656064
2018-12-15T00:13:17.320Z,4.828032
2018-12-15T00:13:29.665Z,6.437376
2018-12-15T00:13:42.003Z,6.437376
2018-12-15T00:13:54.361Z,6.437376
2018-12-15T00:14:06.714Z,3.218688
2018-12-15T00:14:19.070Z,3.218688
2018-12-15T00:14:31.976Z,3.218688
2018-12-15T00:14:44.315Z,3.218688
2018-12-15T00:14:56.677Z,1.609344
2018-12-15T00:15:09.010Z,0
2018-12-15T00:15:21.351Z,0
2018-12-15T00:15:33.771Z,0
2018-12-15T00:15:46.115Z,0
2018-12-15T00:15:58.449Z,0
2018-12-15T00:16:10.811Z,1.609344
2018-12-15T00:16:23.142Z,1.609344
2018-12-15T00:16:35.767Z,1.609344
2018-12-15T00:16:48.130Z,1.609344
2018-12-15T00:17:06.770Z,1.609344
2018-12-15T00:17:19.123Z,3.218688
2018-12-15T00:17:31.464Z,3.218688
2018-12-15T00:17:43.875Z,0
2018-12-15T00:17:56.217Z,3.218688
2018-12-15T00:18:08.696Z,1.609344
2018-12-15T00:18:21.035Z,3.218688
2018-12-15T00:18:33.429Z,3.218688
2018-12-15T00:18:45.818Z,8.04672
2018-12-15T00:18:58.184Z,9.656064
2018-12-15T00:19:10.524Z,8.04672
2018-12-15T00:19:22.867Z,6.437376
2018-12-15T00:19:35.208Z,1.609344
2018-12-15T00:19:47.550Z,3.218688
2018-12-15T00:19:59.885Z,1.609344
2018-12-15T00:20:12.227Z,1.609344
2018-12-15T00:20:24.573Z,1.609344
2018-12-15T00:20:36.921Z,0
2018-12-15T00:20:49.273Z,3.218688
2018-12-15T00:21:01.639Z,4.828032
2018-12-15T00:21:14.036Z,3.218688
2018-12-15T00:21:26.380Z,1.609344
2018-12-15T00:21:38.797Z,8.04672
2018-12-15T00:21:51.160Z,3.218688
2018-12-15T00:22:03.510Z,3.218688
2018-12-15T00:22:15.866Z,3.218688
2018-12-15T00:22:28.218Z,1.609344
2018-12-15T00:22:40.552Z,3.218688
2018-12-15T00:22:52.885Z,6.437376
2018-12-15T00:23:05.236Z,9.656064
2018-12-15T00:23:17.600Z,6.437376
2018-12-15T00:23:29.962Z,1.609344
2018-12-15T00:23:42.319Z,9.656064
2018-12-15T00:23:54.672Z,8.04672
2018-12-15T00:24:07.007Z,8.04672
2018-12-15T00:24:19.357Z,6.437376
2018-12-15T00:24:31.709Z,3.218688
2018-12-15T00:24:44.043Z,3.218688
2018-12-15T00:24:56.394Z,1.609344
2018-12-15T00:25:08.862Z,1.609344
2018-12-15T00:25:21.194Z,0
2018-12-15T00:25:33.744Z,1.609344
2018-12-15T00:25:46.161Z,8.04672
2018-12-15T00:25:58.516Z,6.437376
2018-12-15T00:26:10.864Z,3.218688
2018-12-15T00:26:23.195Z,6.437376
2018-12-15T00:26:36.027Z,8.04672
2018-12-15T00:26:48.368Z,6.437376
2018-12-15T00:27:00.719Z,1.609344
2018-12-15T00:27:13.057Z,6.437376
2018-12-15T00:27:25.441Z,8.04672
2018-12-15T00:27:37.789Z,8.04672
2018-12-15T00:27:50.136Z,8.04672
2018-12-15T00:28:02.480Z,8.04672
2018-12-15T00:28:14.847Z,6.437376
2018-12-15T00:28:27.211Z,1.609344
2018-12-15T00:28:39.685Z,6.437376
2018-12-15T00:28:52.151Z,6.437376
2018-12-15T00:29:04.549Z,6.437376
2018-12-15T00:29:16.903Z,1.609344
2018-12-15T00:29:29.245Z,1.609344
2018-12-15T00:29:41.623Z,4.828032
2018-12-15T00:29:53.974Z,3.218688
2018-12-15T00:30:06.404Z,1.609344
2018-12-15T00:30:19.391Z,6.437376
2018-12-15T00:30:31.762Z,6.437376
2018-12-15T00:30:44.115Z,3.218688
2018-12-15T00:30:56.660Z,3.218688
2018-12-15T00:31:09.082Z,1.609344
2018-12-15T00:31:21.498Z,6.437376
2018-12-15T00:31:33.848Z,3.218688
2018-12-15T00:31:46.201Z,1.609344
2018-12-15T00:31:58.535Z,1.609344
2018-12-15T00:32:11.038Z,0
2018-12-15T00:32:23.757Z,0
2018-12-15T00:32:36.116Z,0
2018-12-15T00:32:48.537Z,0
2018-12-15T00:33:00.873Z,0
2018-12-15T00:33:13.216Z,1.609344
2018-12-15T00:33:25.566Z,8.04672
2018-12-15T00:33:38.061Z,9.656064
2018-12-15T00:33:50.401Z,11.265408
2018-12-15T00:34:02.759Z,8.04672
2018-12-15T00:34:15.114Z,6.437376
2018-12-15T00:34:27.448Z,3.218688
2018-12-15T00:34:39.827Z,3.218688
2018-12-15T00:34:52.383Z,8.04672
2018-12-15T00:35:04.751Z,9.656064
2018-12-15T00:35:17.144Z,4.828032
2018-12-15T00:35:29.489Z,6.437376
2018-12-15T00:35:41.842Z,4.828032
2018-12-15T00:35:54.182Z,3.218688
2018-12-15T00:36:06.624Z,3.218688
2018-12-15T00:36:19.200Z,1.609344
2018-12-15T00:36:31.548Z,1.609344
2018-12-15T00:36:43.874Z,1.609344
2018-12-15T00:36:56.206Z,1.609344
2018-12-15T00:37:08.620Z,0
2018-12-15T00:37:20.955Z,1.609344
2018-12-15T00:37:33.316Z,1.609344
2018-12-15T00:37:45.892Z,1.609344
2018-12-15T00:37:58.407Z,1.609344
2018-12-15T00:38:10.830Z,1.609344
2018-12-15T00:38:23.233Z,0
2018-12-15T00:38:35.565Z,0
2018-12-15T00:38:47.915Z,3.218688
2018-12-15T00:39:00.287Z,3.218688
2018-12-15T00:39:12.713Z,6.437376
2018-12-15T00:39:25.187Z,1.609344
2018-12-15T00:39:37.528Z,6.437376
2018-12-15T00:39:49.930Z,3.218688
2018-12-15T00:40:02.594Z,1.609344
2018-12-15T00:40:14.942Z,1.609344
2018-12-15T00:40:27.291Z,0
2018-12-15T00:40:39.832Z,1.609344
2018-12-15T00:40:52.176Z,1.609344
2018-12-15T00:41:04.718Z,4.828032
2018-12-15T00:41:17.150Z,6.437376
2018-12-15T00:41:29.483Z,6.437376
2018-12-15T00:41:41.814Z,3.218688
2018-12-15T00:41:54.143Z,3.218688
2018-12-15T00:42:06.482Z,1.609344
2018-12-15T00:42:18.866Z,3.218688
2018-12-15T00:42:31.284Z,8.04672
2018-12-15T00:42:43.715Z,9.656064
2018-12-15T00:42:56.114Z,6.437376
2018-12-15T00:43:08.462Z,3.218688
2018-12-15T00:43:20.813Z,1.609344
2018-12-15T00:43:33.169Z,4.828032
2018-12-15T00:43:45.541Z,3.218688
2018-12-15T00:43:57.884Z,3.218688
2018-12-15T00:44:10.241Z,8.04672
2018-12-15T00:44:22.594Z,3.218688
2018-12-15T00:44:34.947Z,4.828032
2018-12-15T00:44:47.301Z,3.218688
2018-12-15T00:44:59.638Z,3.218688
2018-12-15T00:45:12.017Z,1.609344
2018-12-15T00:45:24.427Z,0
2018-12-15T00:45:36.755Z,3.218688
2018-12-15T00:45:49.125Z,1.609344
2018-12-15T00:46:01.471Z,3.218688
2018-12-15T00:46:14.009Z,4.828032
2018-12-15T00:46:26.342Z,6.437376
2018-12-15T00:46:38.690Z,6.437376
2018-12-15T00:46:51.056Z,9.656064
2018-12-15T00:47:03.406Z,6.437376
2018-12-15T00:47:22.863Z,1.609344
2018-12-15T00:47:35.279Z,1.609344
2018-12-15T00:47:47.642Z,1.609344
2018-12-15T00:47:59.973Z,3.218688
2018-12-15T00:48:12.322Z,1.609344
2018-12-15T00:48:24.664Z,8.04672
2018-12-15T00:48:37.004Z,6.437376
2018-12-15T00:48:49.357Z,4.828032
2018-12-15T00:49:01.730Z,3.218688
2018-12-15T00:49:14.070Z,3.218688
2018-12-15T00:49:26.545Z,3.218688
2018-12-15T00:49:38.892Z,3.218688
2018-12-15T00:49:51.242Z,3.218688
2018-12-15T00:50:03.650Z,1.609344
2018-12-15T00:50:16.021Z,6.437376
2018-12-15T00:50:28.403Z,1.609344
2018-12-15T00:50:40.746Z,1.609344
2018-12-15T00:50:53.100Z,3.218688
2018-12-15T00:51:05.435Z,6.437376
2018-12-15T00:51:17.797Z,1.609344
2018-12-15T00:51:30.208Z,3.218688
2018-12-15T00:51:42.548Z,6.437376
2018-12-15T00:51:54.878Z,6.437376
2018-12-15T00:52:07.352Z,9.656064
2018-12-15T00:52:19.699Z,6.437376
2018-12-15T00:52:32.046Z,4.828032
2018-12-15T00:52:44.380Z,3.218688
2018-12-15T00:52:56.730Z,3.218688
2018-12-15T00:53:09.092Z,6.437376
2018-12-15T00:53:21.423Z,6.437376
2018-12-15T00:53:33.819Z,6.437376
2018-12-15T00:53:46.159Z,3.218688
2018-12-15T00:53:58.520Z,3.218688
2018-12-15T00:54:10.862Z,3.218688
2018-12-15T00:54:23.216Z,8.04672
2018-12-15T00:54:35.545Z,6.437376
2018-12-15T00:54:47.917Z,6.437376
2018-12-15T00:55:00.416Z,3.218688
2018-12-15T00:55:12.910Z,1.609344
2018-12-15T00:55:25.334Z,3.218688
2018-12-15T00:55:37.682Z,4.828032
2018-12-15T00:55:50.043Z,8.04672
2018-12-15T00:56:02.402Z,6.437376
2018-12-15T00:56:14.816Z,8.04672
2018-12-15T00:56:27.150Z,9.656064
2018-12-15T00:56:39.496Z,8.04672
2018-12-15T00:56:52.121Z,8.04672
2018-12-15T00:57:04.451Z,8.04672
2018-12-15T00:57:16.859Z,3.218688
2018-12-15T00:57:29.184Z,4.828032
2018-12-15T00:57:41.514Z,3.218688
2018-12-15T00:57:53.846Z,3.218688
2018-12-15T00:58:06.187Z,3.218688
2018-12-15T00:58:19.978Z,9.656064
2018-12-15T00:58:32.345Z,8.04672
2018-12-15T00:58:44.734Z,8.04672
2018-12-15T00:58:57.198Z,4.828032
2018-12-15T00:59:09.549Z,3.218688
2018-12-15T00:59:21.901Z,3.218688
2018-12-15T00:59:34.272Z,6.437376
2018-12-15T00:59:46.708Z,6.437376
2018-12-15T00:59:59.044Z,3.218688
2018-12-15T01:00:11.430Z,3.218688
2018-12-15T01:00:23.825Z,3.218688
2018-12-15T01:00:36.202Z,0
2018-12-15T01:00:48.551Z,0
2018-12-15T01:01:00.909Z,3.218688
2018-12-15T01:01:13.259Z,6.437376
2018-12-15T01:01:25.602Z,1.609344
2018-12-15T01:01:37.960Z,3.218688
2018-12-15T01:01:50.339Z,0
2018-12-15T01:02:02.717Z,1.609344
2018-12-15T01:02:15.062Z,1.609344
2018-12-15T01:02:27.770Z,1.609344
2018-12-15T01:02:40.168Z,1.609344
2018-12-15T01:02:52.506Z,3.218688
2018-12-15T01:03:04.893Z,3.218688
2018-12-15T01:03:17.234Z,3.218688
2018-12-15T01:03:29.574Z,3.218688
2018-12-15T01:03:41.923Z,1.609344
2018-12-15T01:03:54.285Z,1.609344
2018-12-15T01:04:06.646Z,9.656064
2018-12-15T01:04:19.001Z,6.437376
2018-12-15T01:04:31.347Z,1.609344
2018-12-15T01:04:43.695Z,6.437376
2018-12-15T01:04:56.059Z,6.437376
2018-12-15T01:05:08.416Z,3.218688
2018-12-15T01:05:20.756Z,3.218688
2018-12-15T01:05:33.124Z,8.04672
2018-12-15T01:05:45.466Z,4.828032
2018-12-15T01:05:57.812Z,4.828032
2018-12-15T01:06:10.149Z,6.437376
2018-12-15T01:06:22.592Z,3.218688
2018-12-15T01:06:34.941Z,3.218688
2018-12-15T01:06:47.288Z,3.218688
2018-12-15T01:06:59.630Z,1.609344
2018-12-15T01:07:12.009Z,1.609344
2018-12-15T01:07:24.360Z,1.609344
2018-12-15T01:07:37.567Z,3.218688
2018-12-15T01:07:49.908Z,6.437376
2018-12-15T01:08:02.250Z,4.828032
2018-12-15T01:08:14.595Z,6.437376
2018-12-15T01:08:26.964Z,3.218688
2018-12-15T01:08:39.309Z,0
2018-12-15T01:08:51.653Z,3.218688
2018-12-15T01:09:04.006Z,6.437376
2018-12-15T01:09:16.539Z,4.828032
2018-12-15T01:09:28.901Z,8.04672
2018-12-15T01:09:41.233Z,6.437376
2018-12-15T01:09:53.559Z,3.218688
2018-12-15T01:10:05.932Z,3.218688
2018-12-15T01:10:18.343Z,9.656064
2018-12-15T01:10:30.683Z,8.04672
2018-12-15T01:10:43.041Z,3.218688
2018-12-15T01:10:55.387Z,0
2018-12-15T01:11:07.818Z,3.218688
2018-12-15T01:11:20.172Z,6.437376
2018-12-15T01:11:32.527Z,6.437376
2018-12-15T01:11:44.879Z,4.828032
2018-12-15T01:11:57.222Z,1.609344
2018-12-15T01:12:09.773Z,1.609344
2018-12-15T01:12:22.186Z,6.437376
2018-12-15T01:12:34.547Z,3.218688
2018-12-15T01:12:46.907Z,1.609344
2018-12-15T01:12:59.255Z,1.609344
2018-12-15T01:13:11.625Z,0
2018-12-15T01:13:24.007Z,0
2018-12-15T01:13:36.351Z,0
2018-12-15T01:13:48.699Z,0
2018-12-15T01:14:01.041Z,1.609344
2018-12-15T01:14:13.439Z,0
2018-12-15T01:14:25.787Z,1.609344
2018-12-15T01:14:38.128Z,3.218688
2018-12-15T01:14:50.467Z,8.04672
2018-12-15T01:15:02.825Z,3.218688
2018-12-15T01:15:15.152Z,1.609344
2018-12-15T01:15:27.482Z,9.656064
2018-12-15T01:15:39.843Z,6.437376
2018-12-15T01:15:52.263Z,1.609344
2018-12-15T01:16:04.619Z,6.437376
2018-12-15T01:16:16.981Z,8.04672
2018-12-15T01:16:29.357Z,6.437376
2018-12-15T01:16:41.844Z,8.04672
2018-12-15T01:16:54.195Z,8.04672
2018-12-15T01:17:06.614Z,4.828032
2018-12-15T01:17:25.040Z,1.609344
2018-12-15T01:17:37.398Z,3.218688
2018-12-15T01:17:49.734Z,3.218688
2018-12-15T01:18:02.087Z,3.218688
2018-12-15T01:18:14.443Z,6.437376
2018-12-15T01:18:26.787Z,1.609344
2018-12-15T01:18:39.348Z,0
2018-12-15T01:18:51.752Z,1.609344
2018-12-15T01:19:04.106Z,3.218688
2018-12-15T01:19:16.467Z,8.04672
2018-12-15T01:19:28.804Z,6.437376
2018-12-15T01:19:41.154Z,3.218688
2018-12-15T01:19:53.507Z,8.04672
2018-12-15T01:20:05.935Z,6.437376
2018-12-15T01:20:18.272Z,1.609344
2018-12-15T01:20:30.611Z,3.218688
2018-12-15T01:20:42.979Z,1.609344
2018-12-15T01:20:55.332Z,1.609344
2018-12-15T01:21:07.683Z,1.609344
2018-12-15T01:21:20.033Z,1.609344
2018-12-15T01:21:32.369Z,0
2018-12-15T01:21:44.731Z,0
2018-12-15T01:21:57.069Z,3.218688
2018-12-15T01:22:09.455Z,3.218688
2018-12-15T01:22:21.801Z,3.218688
2018-12-15T01:22:34.148Z,1.609344
2018-12-15T01:22:46.500Z,6.437376
2018-12-15T01:22:58.840Z,9.656064
2018-12-15T01:23:11.251Z,9.656064
2018-12-15T01:23:23.623Z,6.437376
2018-12-15T01:23:35.965Z,4.828032
2018-12-15T01:23:48.326Z,6.437376
2018-12-15T01:24:00.660Z,8.04672
2018-12-15T01:24:13.221Z,3.218688
2018-12-15T01:24:25.622Z,6.437376
2018-12-15T01:24:38.089Z,3.218688
2018-12-15T01:24:50.436Z,3.218688
2018-12-15T01:25:02.797Z,6.437376
2018-12-15T01:25:15.391Z,6.437376
2018-12-15T01:25:27.886Z,3.218688
2018-12-15T01:25:40.240Z,1.609344
2018-12-15T01:25:52.574Z,1.609344
2018-12-15T01:26:04.927Z,3.218688
2018-12-15T01:26:17.255Z,3.218688
2018-12-15T01:26:29.739Z,3.218688
2018-12-15T01:26:42.097Z,4.828032
2018-12-15T01:26:54.439Z,3.218688
2018-12-15T01:27:06.862Z,0
2018-12-15T01:27:19.208Z,6.437376
2018-12-15T01:27:31.545Z,3.218688
2018-12-15T01:27:43.886Z,1.609344
2018-12-15T01:27:56.242Z,3.218688
2018-12-15T01:28:08.601Z,1.609344
2018-12-15T01:28:20.939Z,3.218688
2018-12-15T01:28:33.274Z,3.218688
2018-12-15T01:28:45.772Z,3.218688
2018-12-15T01:28:58.116Z,1.609344
2018-12-15T01:29:10.449Z,3.218688
2018-12-15T01:29:22.808Z,6.437376
2018-12-15T01:29:35.158Z,8.04672
2018-12-15T01:29:47.574Z,9.656064
2018-12-15T01:29:59.901Z,11.265408
2018-12-15T01:30:12.246Z,12.874752
2018-12-15T01:30:24.603Z,9.656064
2018-12-15T01:30:36.960Z,6.437376
2018-12-15T01:30:49.299Z,12.874752
2018-12-15T01:31:01.656Z,11.265408
2018-12-15T01:31:14.005Z,6.437376
2018-12-15T01:31:26.395Z,8.04672
2018-12-15T01:31:38.764Z,6.437376
2018-12-15T01:31:51.313Z,9.656064
2018-12-15T01:32:03.813Z,9.656064
2018-12-15T01:32:16.317Z,6.437376
2018-12-15T01:32:28.793Z,3.218688
2018-12-15T01:32:41.131Z,8.04672
2018-12-15T01:32:53.509Z,3.218688
2018-12-15T01:33:05.869Z,3.218688
2018-12-15T01:33:18.202Z,4.828032
2018-12-15T01:33:30.765Z,3.218688
2018-12-15T01:33:43.112Z,3.218688
2018-12-15T01:33:55.452Z,6.437376
2018-12-15T01:34:08.455Z,3.218688
2018-12-15T01:34:20.822Z,3.218688
2018-12-15T01:34:33.187Z,1.609344
2018-12-15T01:34:45.568Z,0
2018-12-15T01:34:58.093Z,0
2018-12-15T01:35:10.448Z,1.609344
2018-12-15T01:35:22.784Z,3.218688
2018-12-15T01:35:35.116Z,3.218688
2018-12-15T01:35:47.527Z,3.218688
2018-12-15T01:35:59.930Z,4.828032
2018-12-15T01:36:12.287Z,6.437376
2018-12-15T01:36:24.671Z,11.265408
2018-12-15T01:36:37.027Z,8.04672
2018-12-15T01:36:49.370Z,9.656064
2018-12-15T01:37:01.711Z,8.04672
2018-12-15T01:37:14.099Z,6.437376
2018-12-15T01:37:26.431Z,3.218688
2018-12-15T01:37:38.934Z,3.218688
2018-12-15T01:37:51.371Z,8.04672
2018-12-15T01:38:03.903Z,9.656064
2018-12-15T01:38:16.369Z,11.265408
2018-12-15T01:38:28.725Z,6.437376
2018-12-15T01:38:41.069Z,9.656064
2018-12-15T01:38:53.410Z,9.656064
2018-12-15T01:39:05.828Z,11.265408
2018-12-15T01:39:19.647Z,9.656064
2018-12-15T01:39:32.242Z,6.437376
2018-12-15T01:39:44.586Z,8.04672
2018-12-15T01:39:57.140Z,1.609344
2018-12-15T01:40:09.621Z,3.218688
2018-12-15T01:40:21.997Z,1.609344
2018-12-15T01:40:34.337Z,6.437376
2018-12-15T01:40:46.682Z,6.437376
2018-12-15T01:40:59.158Z,9.656064
2018-12-15T01:41:11.594Z,11.265408
2018-12-15T01:41:23.955Z,6.437376
2018-12-15T01:41:36.293Z,6.437376
2018-12-15T01:41:48.623Z,9.656064
2018-12-15T01:42:00.981Z,8.04672
2018-12-15T01:42:13.346Z,6.437376
2018-12-15T01:42:25.679Z,4.828032
2018-12-15T01:42:38.021Z,3.218688
2018-12-15T01:42:50.369Z,3.218688
2018-12-15T01:43:02.711Z,3.218688
2018-12-15T01:43:15.061Z,8.04672
2018-12-15T01:43:27.402Z,8.04672
2018-12-15T01:43:39.752Z,6.437376
2018-12-15T01:43:52.104Z,3.218688
2018-12-15T01:44:04.462Z,1.609344
2018-12-15T01:44:16.872Z,3.218688
2018-12-15T01:44:29.260Z,1.609344
2018-12-15T01:44:41.610Z,4.828032
2018-12-15T01:44:53.964Z,6.437376
2018-12-15T01:45:06.332Z,6.437376
2018-12-15T01:45:18.665Z,6.437376
2018-12-15T01:45:31.030Z,3.218688
2018-12-15T01:45:43.469Z,6.437376
2018-12-15T01:45:55.821Z,4.828032
2018-12-15T01:46:09.518Z,6.437376
2018-12-15T01:46:22.093Z,3.218688
2018-12-15T01:46:34.446Z,1.609344
2018-12-15T01:46:46.899Z,1.609344
2018-12-15T01:46:59.257Z,0
2018-12-15T01:47:11.621Z,0
2018-12-15T01:47:30.456Z,0
2018-12-15T01:47:42.797Z,0
2018-12-15T01:47:55.135Z,0
2018-12-15T01:48:07.492Z,0
2018-12-15T01:48:19.828Z,0
2018-12-15T01:48:32.156Z,1.609344
2018-12-15T01:48:44.503Z,3.218688
2018-12-15T01:48:56.859Z,1.609344
2018-12-15T01:49:09.232Z,0
2018-12-15T01:49:21.567Z,0
2018-12-15T01:49:34.020Z,0
2018-12-15T01:49:46.429Z,1.609344
2018-12-15T01:49:58.772Z,1.609344
2018-12-15T01:50:11.223Z,1.609344
2018-12-15T01:50:23.575Z,3.218688
2018-12-15T01:50:35.911Z,4.828032
2018-12-15T01:50:48.247Z,3.218688
2018-12-15T01:51:00.653Z,1.609344
2018-12-15T01:51:13.032Z,0
2018-12-15T01:51:25.381Z,0
2018-12-15T01:51:37.738Z,3.218688
2018-12-15T01:51:50.130Z,3.218688
2018-12-15T01:52:02.489Z,4.828032
2018-12-15T01:52:15.080Z,8.04672
2018-12-15T01:52:27.419Z,3.218688
2018-12-15T01:52:39.776Z,8.04672
2018-12-15T01:52:52.127Z,4.828032
2018-12-15T01:53:04.488Z,6.437376
2018-12-15T01:53:16.821Z,9.656064
2018-12-15T01:53:29.166Z,8.04672
2018-12-15T01:53:41.505Z,4.828032
2018-12-15T01:53:53.848Z,4.828032
2018-12-15T01:54:06.192Z,8.04672
2018-12-15T01:54:18.538Z,6.437376
2018-12-15T01:54:30.901Z,6.437376
2018-12-15T01:54:43.256Z,6.437376
2018-12-15T01:54:55.731Z,4.828032
2018-12-15T01:55:08.151Z,3.218688
2018-12-15T01:55:20.523Z,3.218688
2018-12-15T01:55:32.866Z,1.609344
2018-12-15T01:55:45.220Z,1.609344
2018-12-15T01:55:57.652Z,1.609344
2018-12-15T01:56:09.990Z,1.609344
2018-12-15T01:56:22.335Z,1.609344
2018-12-15T01:56:34.693Z,3.218688
2018-12-15T01:56:47.203Z,4.828032
2018-12-15T01:56:59.539Z,3.218688
2018-12-15T01:57:11.954Z,4.828032
2018-12-15T01:57:24.343Z,1.609344
2018-12-15T01:57:36.675Z,8.04672
2018-12-15T01:57:49.030Z,8.04672
2018-12-15T01:58:01.436Z,6.437376
2018-12-15T01:58:13.790Z,3.218688
2018-12-15T01:58:26.877Z,6.437376
2018-12-15T01:58:39.277Z,6.437376
2018-12-15T01:58:51.613Z,6.437376
2018-12-15T01:59:04.414Z,4.828032
2018-12-15T01:59:16.795Z,6.437376
2018-12-15T01:59:29.136Z,1.609344
2018-12-15T01:59:41.482Z,1.609344
2018-12-15T01:59:53.892Z,1.609344
2018-12-15T02:00:06.294Z,3.218688
2018-12-15T02:00:18.661Z,1.609344
2018-12-15T02:00:31.040Z,1.609344
2018-12-15T02:00:43.409Z,6.437376
2018-12-15T02:00:55.750Z,3.218688
2018-12-15T02:01:08.115Z,1.609344
2018-12-15T02:01:20.448Z,3.218688
2018-12-15T02:01:32.795Z,3.218688
2018-12-15T02:01:45.160Z,1.609344
2018-12-15T02:01:57.513Z,1.609344
2018-12-15T02:02:09.864Z,1.609344
2018-12-15T02:02:22.217Z,4.828032
2018-12-15T02:02:34.885Z,3.218688
2018-12-15T02:02:47.237Z,3.218688
2018-12-15T02:02:59.589Z,1.609344
2018-12-15T02:03:11.943Z,0
2018-12-15T02:03:24.301Z,1.609344
2018-12-15T02:03:36.656Z,1.609344
2018-12-15T02:03:49.009Z,0
2018-12-15T02:04:01.398Z,0
2018-12-15T02:04:13.753Z,0
2018-12-15T02:04:26.111Z,0
2018-12-15T02:04:38.477Z,1.609344
2018-12-15T02:04:50.854Z,0
2018-12-15T02:05:03.206Z,1.609344
2018-12-15T02:05:15.618Z,0
2018-12-15T02:05:27.956Z,0
2018-12-15T02:05:40.481Z,1.609344
2018-12-15T02:05:52.877Z,3.218688
2018-12-15T02:06:05.292Z,3.218688
2018-12-15T02:06:17.741Z,1.609344
2018-12-15T02:06:30.085Z,0
2018-12-15T02:06:42.450Z,1.609344
2018-12-15T02:06:54.807Z,4.828032
2018-12-15T02:07:07.125Z,6.437376
2018-12-15T02:07:19.494Z,3.218688
2018-12-15T02:07:31.925Z,1.609344
2018-12-15T02:07:44.440Z,1.609344
2018-12-15T02:07:56.781Z,1.609344
2018-12-15T02:08:09.125Z,3.218688
2018-12-15T02:08:21.491Z,1.609344
2018-12-15T02:08:33.816Z,3.218688
2018-12-15T02:08:46.177Z,3.218688
2018-12-15T02:08:58.507Z,3.218688
2018-12-15T02:09:10.850Z,6.437376
2018-12-15T02:09:23.193Z,3.218688
2018-12-15T02:09:35.533Z,4.828032
2018-12-15T02:09:47.886Z,8.04672
2018-12-15T02:10:00.621Z,4.828032
2018-12-15T02:10:12.970Z,1.609344
2018-12-15T02:10:25.309Z,3.218688
2018-12-15T02:10:37.662Z,9.656064
2018-12-15T02:10:50.008Z,6.437376
2018-12-15T02:11:02.347Z,6.437376
2018-12-15T02:11:14.706Z,3.218688
2018-12-15T02:11:27.076Z,3.218688
2018-12-15T02:11:39.441Z,8.04672
2018-12-15T02:11:53.269Z,9.656064
2018-12-15T02:12:05.631Z,8.04672
2018-12-15T02:12:17.979Z,9.656064
2018-12-15T02:12:30.322Z,8.04672
2018-12-15T02:12:42.670Z,6.437376
2018-12-15T02:12:55.015Z,1.609344
2018-12-15T02:13:07.383Z,1.609344
2018-12-15T02:13:19.719Z,9.656064
2018-12-15T02:13:32.073Z,3.218688
2018-12-15T02:13:44.445Z,8.04672
2018-12-15T02:13:56.788Z,6.437376
2018-12-15T02:14:09.138Z,3.218688
2018-12-15T02:14:21.486Z,0
2018-12-15T02:14:33.826Z,1.609344
2018-12-15T02:14:46.175Z,0
2018-12-15T02:14:58.532Z,1.609344
2018-12-15T02:15:10.911Z,1.609344
2018-12-15T02:15:23.251Z,1.609344
2018-12-15T02:15:35.589Z,0
2018-12-15T02:15:48.059Z,0
2018-12-15T02:16:00.404Z,1.609344
2018-12-15T02:16:12.788Z,1.609344
2018-12-15T02:16:25.128Z,3.218688
2018-12-15T02:16:37.630Z,3.218688
2018-12-15T02:16:49.990Z,3.218688
2018-12-15T02:17:02.317Z,1.609344
2018-12-15T02:17:14.686Z,1.609344
2018-12-15T02:17:33.405Z,3.218688
2018-12-15T02:17:45.931Z,1.609344
2018-12-15T02:17:58.284Z,6.437376
2018-12-15T02:18:10.614Z,3.218688
2018-12-15T02:18:22.946Z,6.437376
2018-12-15T02:18:35.281Z,4.828032
2018-12-15T02:18:47.697Z,3.218688
2018-12-15T02:19:00.041Z,1.609344
2018-12-15T02:19:12.567Z,8.04672
2018-12-15T02:19:24.942Z,6.437376
2018-12-15T02:19:37.309Z,1.609344
2018-12-15T02:19:49.672Z,0
2018-12-15T02:20:02.013Z,0
2018-12-15T02:20:14.346Z,0
2018-12-15T02:20:26.696Z,0
2018-12-15T02:20:39.034Z,0
2018-12-15T02:20:51.404Z,1.609344
2018-12-15T02:21:03.839Z,1.609344
2018-12-15T02:21:16.185Z,3.218688
2018-12-15T02:21:28.529Z,4.828032
2018-12-15T02:21:40.880Z,3.218688
2018-12-15T02:21:53.380Z,3.218688
2018-12-15T02:22:05.714Z,3.218688
2018-12-15T02:22:18.032Z,6.437376
2018-12-15T02:22:30.388Z,3.218688
2018-12-15T02:22:42.754Z,1.609344
2018-12-15T02:22:55.106Z,1.609344
2018-12-15T02:23:07.449Z,4.828032
2018-12-15T02:23:19.789Z,1.609344
2018-12-15T02:23:32.147Z,1.609344
2018-12-15T02:23:44.494Z,3.218688
2018-12-15T02:23:56.856Z,12.874752
2018-12-15T02:24:09.195Z,11.265408
2018-12-15T02:24:21.580Z,8.04672
2018-12-15T02:24:33.903Z,6.437376
2018-12-15T02:24:46.321Z,3.218688
2018-12-15T02:24:58.712Z,4.828032
2018-12-15T02:25:11.486Z,6.437376
2018-12-15T02:25:23.820Z,4.828032
2018-12-15T02:25:36.234Z,6.437376
2018-12-15T02:25:48.564Z,9.656064
2018-12-15T02:26:00.904Z,9.656064
2018-12-15T02:26:13.260Z,6.437376
2018-12-15T02:26:25.783Z,3.218688
2018-12-15T02:26:38.302Z,3.218688
2018-12-15T02:26:50.659Z,0
2018-12-15T02:27:03.024Z,0
2018-12-15T02:27:15.358Z,0
2018-12-15T02:27:27.716Z,8.04672
2018-12-15T02:27:40.044Z,8.04672
2018-12-15T02:27:52.376Z,8.04672
2018-12-15T02:28:04.723Z,6.437376
2018-12-15T02:28:17.064Z,8.04672
2018-12-15T02:28:29.413Z,9.656064
2018-12-15T02:28:41.771Z,6.437376
2018-12-15T02:28:54.226Z,11.265408
2018-12-15T02:29:06.579Z,6.437376
2018-12-15T02:29:18.910Z,8.04672